sensor_id;sensor_type;location;lat;lon;timestamp;P1;durP1;ratioP1;P2;durP2;ratioP2
84187;SDS011;74316;45.648;13.764;2024-01-16T00:01:53;6.70;;;4.68;;
84187;SDS011;74316;45.648;13.764;2024-01-16T00:04:19;4.78;;;4.30;;
84187;SDS011;74316;45.648;13.764;2024-01-16T00:06:45;8.85;;;4.28;;
84187;SDS011;74316;45.648;13.764;2024-01-16T00:09:11;4.95;;;4.38;;
84187;SDS011;74316;45.648;13.764;2024-01-16T00:11:42;7.43;;;4.47;;
84187;SDS011;74316;45.648;13.764;2024-01-16T00:14:09;5.07;;;4.15;;
84187;SDS011;74316;45.648;13.764;2024-01-16T00:16:41;5.43;;;4.15;;
84187;SDS011;74316;45.648;13.764;2024-01-16T00:19:11;4.90;;;4.45;;
84187;SDS011;74316;45.648;13.764;2024-01-16T00:21:56;6.55;;;4.25;;
84187;SDS011;74316;45.648;13.764;2024-01-16T00:24:22;4.82;;;4.18;;
84187;SDS011;74316;45.648;13.764;2024-01-16T00:26:48;4.30;;;3.90;;
84187;SDS011;74316;45.648;13.764;2024-01-16T00:29:15;5.15;;;4.05;;
84187;SDS011;74316;45.648;13.764;2024-01-16T00:31:40;4.88;;;4.30;;
84187;SDS011;74316;45.648;13.764;2024-01-16T00:34:06;7.45;;;4.15;;
84187;SDS011;74316;45.648;13.764;2024-01-16T00:36:32;4.65;;;4.22;;
84187;SDS011;74316;45.648;13.764;2024-01-16T00:38:58;6.78;;;4.28;;
84187;SDS011;74316;45.648;13.764;2024-01-16T00:41:24;4.28;;;3.88;;
84187;SDS011;74316;45.648;13.764;2024-01-16T00:43:49;4.68;;;4.25;;
84187;SDS011;74316;45.648;13.764;2024-01-16T00:46:16;7.80;;;4.40;;
84187;SDS011;74316;45.648;13.764;2024-01-16T00:48:42;7.88;;;4.07;;
84187;SDS011;74316;45.648;13.764;2024-01-16T00:51:07;5.38;;;4.40;;
84187;SDS011;74316;45.648;13.764;2024-01-16T00:53:35;5.38;;;4.10;;
84187;SDS011;74316;45.648;13.764;2024-01-16T00:56:05;5.45;;;4.60;;
84187;SDS011;74316;45.648;13.764;2024-01-16T00:58:32;5.93;;;3.92;;
84187;SDS011;74316;45.648;13.764;2024-01-16T01:00:58;5.95;;;3.55;;
84187;SDS011;74316;45.648;13.764;2024-01-16T01:03:24;4.95;;;4.00;;
84187;SDS011;74316;45.648;13.764;2024-01-16T01:05:51;8.13;;;4.03;;
84187;SDS011;74316;45.648;13.764;2024-01-16T01:08:17;5.28;;;4.40;;
84187;SDS011;74316;45.648;13.764;2024-01-16T01:10:43;5.97;;;4.03;;
84187;SDS011;74316;45.648;13.764;2024-01-16T01:13:09;7.55;;;4.03;;
84187;SDS011;74316;45.648;13.764;2024-01-16T01:15:34;5.30;;;4.07;;
84187;SDS011;74316;45.648;13.764;2024-01-16T01:18:00;4.32;;;3.92;;
84187;SDS011;74316;45.648;13.764;2024-01-16T01:20:26;8.25;;;4.32;;
84187;SDS011;74316;45.648;13.764;2024-01-16T01:22:52;9.25;;;4.20;;
84187;SDS011;74316;45.648;13.764;2024-01-16T01:25:18;4.50;;;3.67;;
84187;SDS011;74316;45.648;13.764;2024-01-16T01:27:44;3.92;;;3.63;;
84187;SDS011;74316;45.648;13.764;2024-01-16T01:30:10;4.13;;;3.53;;
84187;SDS011;74316;45.648;13.764;2024-01-16T01:32:36;5.88;;;4.07;;
84187;SDS011;74316;45.648;13.764;2024-01-16T01:35:03;4.50;;;3.78;;
84187;SDS011;74316;45.648;13.764;2024-01-16T01:37:30;8.05;;;4.40;;
84187;SDS011;74316;45.648;13.764;2024-01-16T01:39:55;7.13;;;4.05;;
84187;SDS011;74316;45.648;13.764;2024-01-16T01:42:21;4.72;;;3.70;;
84187;SDS011;74316;45.648;13.764;2024-01-16T01:44:47;4.50;;;3.80;;
84187;SDS011;74316;45.648;13.764;2024-01-16T01:47:13;5.15;;;4.00;;
84187;SDS011;74316;45.648;13.764;2024-01-16T01:49:40;5.97;;;4.00;;
84187;SDS011;74316;45.648;13.764;2024-01-16T01:52:06;7.57;;;4.20;;
84187;SDS011;74316;45.648;13.764;2024-01-16T01:54:34;4.20;;;3.80;;
84187;SDS011;74316;45.648;13.764;2024-01-16T01:57:02;10.07;;;3.70;;
84187;SDS011;74316;45.648;13.764;2024-01-16T01:59:31;5.38;;;3.92;;
84187;SDS011;74316;45.648;13.764;2024-01-16T02:01:57;7.55;;;3.90;;
84187;SDS011;74316;45.648;13.764;2024-01-16T02:04:23;6.75;;;4.13;;
84187;SDS011;74316;45.648;13.764;2024-01-16T02:06:50;5.00;;;3.72;;
84187;SDS011;74316;45.648;13.764;2024-01-16T02:09:16;3.90;;;3.60;;
84187;SDS011;74316;45.648;13.764;2024-01-16T02:11:44;6.28;;;3.78;;
84187;SDS011;74316;45.648;13.764;2024-01-16T02:14:09;5.85;;;4.00;;
84187;SDS011;74316;45.648;13.764;2024-01-16T02:16:36;4.25;;;3.53;;
84187;SDS011;74316;45.648;13.764;2024-01-16T02:19:03;4.18;;;3.60;;
84187;SDS011;74316;45.648;13.764;2024-01-16T02:21:30;5.18;;;3.80;;
84187;SDS011;74316;45.648;13.764;2024-01-16T02:24:02;5.22;;;3.67;;
84187;SDS011;74316;45.648;13.764;2024-01-16T02:26:28;5.07;;;3.90;;
84187;SDS011;74316;45.648;13.764;2024-01-16T02:28:55;7.90;;;3.63;;
84187;SDS011;74316;45.648;13.764;2024-01-16T02:31:22;4.70;;;3.75;;
84187;SDS011;74316;45.648;13.764;2024-01-16T02:33:48;4.60;;;4.07;;
84187;SDS011;74316;45.648;13.764;2024-01-16T02:36:14;7.53;;;3.70;;
84187;SDS011;74316;45.648;13.764;2024-01-16T02:38:40;4.18;;;3.78;;
84187;SDS011;74316;45.648;13.764;2024-01-16T02:41:06;5.97;;;3.83;;
84187;SDS011;74316;45.648;13.764;2024-01-16T02:43:33;5.13;;;3.70;;
84187;SDS011;74316;45.648;13.764;2024-01-16T02:45:59;4.70;;;3.85;;
84187;SDS011;74316;45.648;13.764;2024-01-16T02:48:24;3.95;;;3.20;;
84187;SDS011;74316;45.648;13.764;2024-01-16T02:50:50;3.45;;;3.15;;
84187;SDS011;74316;45.648;13.764;2024-01-16T02:53:16;4.57;;;3.38;;
84187;SDS011;74316;45.648;13.764;2024-01-16T02:55:42;6.30;;;3.60;;
84187;SDS011;74316;45.648;13.764;2024-01-16T02:58:08;4.05;;;3.63;;
84187;SDS011;74316;45.648;13.764;2024-01-16T03:00:33;3.53;;;3.28;;
84187;SDS011;74316;45.648;13.764;2024-01-16T03:03:00;3.63;;;3.30;;
84187;SDS011;74316;45.648;13.764;2024-01-16T03:05:26;4.65;;;3.35;;
84187;SDS011;74316;45.648;13.764;2024-01-16T03:07:52;6.43;;;3.67;;
84187;SDS011;74316;45.648;13.764;2024-01-16T03:10:17;5.55;;;3.78;;
84187;SDS011;74316;45.648;13.764;2024-01-16T03:12:43;8.02;;;3.58;;
84187;SDS011;74316;45.648;13.764;2024-01-16T03:15:09;4.20;;;3.40;;
84187;SDS011;74316;45.648;13.764;2024-01-16T03:17:35;4.75;;;3.47;;
84187;SDS011;74316;45.648;13.764;2024-01-16T03:20:01;3.47;;;3.17;;
84187;SDS011;74316;45.648;13.764;2024-01-16T03:22:28;3.50;;;3.20;;
84187;SDS011;74316;45.648;13.764;2024-01-16T03:24:54;7.05;;;3.78;;
84187;SDS011;74316;45.648;13.764;2024-01-16T03:27:19;3.97;;;3.22;;
84187;SDS011;74316;45.648;13.764;2024-01-16T03:29:45;4.53;;;3.05;;
84187;SDS011;74316;45.648;13.764;2024-01-16T03:32:11;6.25;;;3.00;;
84187;SDS011;74316;45.648;13.764;2024-01-16T03:34:37;3.78;;;3.47;;
84187;SDS011;74316;45.648;13.764;2024-01-16T03:37:03;3.10;;;2.90;;
84187;SDS011;74316;45.648;13.764;2024-01-16T03:39:29;3.38;;;3.08;;
84187;SDS011;74316;45.648;13.764;2024-01-16T03:41:55;5.50;;;3.10;;
84187;SDS011;74316;45.648;13.764;2024-01-16T03:44:21;3.28;;;2.97;;
84187;SDS011;74316;45.648;13.764;2024-01-16T03:46:46;5.78;;;3.28;;
84187;SDS011;74316;45.648;13.764;2024-01-16T03:49:12;6.45;;;3.13;;
84187;SDS011;74316;45.648;13.764;2024-01-16T03:51:38;3.05;;;2.85;;
84187;SDS011;74316;45.648;13.764;2024-01-16T03:54:07;3.83;;;3.25;;
84187;SDS011;74316;45.648;13.764;2024-01-16T03:56:33;3.33;;;3.03;;
84187;SDS011;74316;45.648;13.764;2024-01-16T03:59:00;5.70;;;3.10;;
84187;SDS011;74316;45.648;13.764;2024-01-16T04:01:32;3.58;;;3.28;;
84187;SDS011;74316;45.648;13.764;2024-01-16T04:03:58;3.08;;;2.88;;
84187;SDS011;74316;45.648;13.764;2024-01-16T04:06:24;3.40;;;3.10;;
84187;SDS011;74316;45.648;13.764;2024-01-16T04:08:49;3.92;;;2.97;;
84187;SDS011;74316;45.648;13.764;2024-01-16T04:11:15;3.35;;;2.90;;
84187;SDS011;74316;45.648;13.764;2024-01-16T04:13:41;3.38;;;3.08;;
84187;SDS011;74316;45.648;13.764;2024-01-16T04:16:07;3.70;;;3.05;;
84187;SDS011;74316;45.648;13.764;2024-01-16T04:18:36;3.10;;;2.80;;
84187;SDS011;74316;45.648;13.764;2024-01-16T04:21:05;3.47;;;2.90;;
84187;SDS011;74316;45.648;13.764;2024-01-16T04:23:31;2.85;;;2.65;;
84187;SDS011;74316;45.648;13.764;2024-01-16T04:25:57;3.22;;;2.83;;
84187;SDS011;74316;45.648;13.764;2024-01-16T04:28:24;2.90;;;2.70;;
84187;SDS011;74316;45.648;13.764;2024-01-16T04:30:50;3.08;;;2.88;;
84187;SDS011;74316;45.648;13.764;2024-01-16T04:33:16;3.67;;;2.95;;
84187;SDS011;74316;45.648;13.764;2024-01-16T04:35:42;3.05;;;2.75;;
84187;SDS011;74316;45.648;13.764;2024-01-16T04:38:08;5.20;;;2.83;;
84187;SDS011;74316;45.648;13.764;2024-01-16T04:40:34;4.50;;;3.17;;
84187;SDS011;74316;45.648;13.764;2024-01-16T04:43:00;2.92;;;2.67;;
84187;SDS011;74316;45.648;13.764;2024-01-16T04:45:26;3.10;;;2.80;;
84187;SDS011;74316;45.648;13.764;2024-01-16T04:47:51;2.72;;;2.38;;
84187;SDS011;74316;45.648;13.764;2024-01-16T04:50:18;3.20;;;2.90;;
84187;SDS011;74316;45.648;13.764;2024-01-16T04:52:44;4.85;;;3.22;;
84187;SDS011;74316;45.648;13.764;2024-01-16T04:55:09;2.63;;;2.40;;
84187;SDS011;74316;45.648;13.764;2024-01-16T04:57:35;2.95;;;2.67;;
84187;SDS011;74316;45.648;13.764;2024-01-16T05:00:02;2.92;;;2.50;;
84187;SDS011;74316;45.648;13.764;2024-01-16T05:02:32;3.42;;;2.95;;
84187;SDS011;74316;45.648;13.764;2024-01-16T05:04:58;2.80;;;2.47;;
84187;SDS011;74316;45.648;13.764;2024-01-16T05:07:25;2.70;;;2.50;;
84187;SDS011;74316;45.648;13.764;2024-01-16T05:09:51;3.15;;;2.90;;
84187;SDS011;74316;45.648;13.764;2024-01-16T05:12:17;4.65;;;2.60;;
84187;SDS011;74316;45.648;13.764;2024-01-16T05:14:43;3.78;;;2.67;;
84187;SDS011;74316;45.648;13.764;2024-01-16T05:17:09;6.45;;;2.60;;
84187;SDS011;74316;45.648;13.764;2024-01-16T05:19:35;2.92;;;2.72;;
84187;SDS011;74316;45.648;13.764;2024-01-16T05:22:00;5.80;;;2.70;;
84187;SDS011;74316;45.648;13.764;2024-01-16T05:24:28;3.47;;;2.70;;
84187;SDS011;74316;45.648;13.764;2024-01-16T05:26:54;5.95;;;2.78;;
84187;SDS011;74316;45.648;13.764;2024-01-16T05:29:20;2.47;;;2.28;;
84187;SDS011;74316;45.648;13.764;2024-01-16T05:31:46;2.50;;;2.30;;
84187;SDS011;74316;45.648;13.764;2024-01-16T05:34:12;4.10;;;2.85;;
84187;SDS011;74316;45.648;13.764;2024-01-16T05:36:39;4.00;;;2.95;;
84187;SDS011;74316;45.648;13.764;2024-01-16T05:39:05;2.70;;;2.50;;
84187;SDS011;74316;45.648;13.764;2024-01-16T05:41:34;2.55;;;2.35;;
84187;SDS011;74316;45.648;13.764;2024-01-16T05:44:00;3.53;;;2.85;;
84187;SDS011;74316;45.648;13.764;2024-01-16T05:46:28;3.42;;;2.80;;
84187;SDS011;74316;45.648;13.764;2024-01-16T05:48:55;4.05;;;2.80;;
84187;SDS011;74316;45.648;13.764;2024-01-16T05:51:21;2.45;;;2.25;;
84187;SDS011;74316;45.648;13.764;2024-01-16T05:53:47;2.42;;;2.22;;
84187;SDS011;74316;45.648;13.764;2024-01-16T05:56:13;2.88;;;2.50;;
84187;SDS011;74316;45.648;13.764;2024-01-16T05:58:39;4.25;;;2.70;;
84187;SDS011;74316;45.648;13.764;2024-01-16T06:01:05;7.20;;;2.70;;
84187;SDS011;74316;45.648;13.764;2024-01-16T06:03:30;2.80;;;2.50;;
84187;SDS011;74316;45.648;13.764;2024-01-16T06:05:56;2.53;;;2.33;;
84187;SDS011;74316;45.648;13.764;2024-01-16T06:08:23;2.50;;;2.30;;
84187;SDS011;74316;45.648;13.764;2024-01-16T06:10:49;5.30;;;2.50;;
84187;SDS011;74316;45.648;13.764;2024-01-16T06:13:15;8.27;;;2.50;;
84187;SDS011;74316;45.648;13.764;2024-01-16T06:15:42;2.70;;;2.50;;
84187;SDS011;74316;45.648;13.764;2024-01-16T06:18:09;3.97;;;2.42;;
84187;SDS011;74316;45.648;13.764;2024-01-16T06:20:35;4.85;;;2.58;;
84187;SDS011;74316;45.648;13.764;2024-01-16T06:23:01;5.10;;;2.45;;
84187;SDS011;74316;45.648;13.764;2024-01-16T06:25:27;4.90;;;2.40;;
84187;SDS011;74316;45.648;13.764;2024-01-16T06:27:52;6.25;;;2.13;;
84187;SDS011;74316;45.648;13.764;2024-01-16T06:30:19;7.32;;;2.65;;
84187;SDS011;74316;45.648;13.764;2024-01-16T06:32:45;4.85;;;2.22;;
84187;SDS011;74316;45.648;13.764;2024-01-16T06:35:12;6.43;;;2.58;;
84187;SDS011;74316;45.648;13.764;2024-01-16T06:37:38;7.82;;;2.58;;
84187;SDS011;74316;45.648;13.764;2024-01-16T06:40:04;7.03;;;2.47;;
84187;SDS011;74316;45.648;13.764;2024-01-16T06:42:30;3.55;;;2.03;;
84187;SDS011;74316;45.648;13.764;2024-01-16T06:44:56;4.93;;;2.60;;
84187;SDS011;74316;45.648;13.764;2024-01-16T06:47:22;10.57;;;2.35;;
84187;SDS011;74316;45.648;13.764;2024-01-16T06:49:48;9.27;;;1.90;;
84187;SDS011;74316;45.648;13.764;2024-01-16T06:52:16;4.15;;;2.00;;
84187;SDS011;74316;45.648;13.764;2024-01-16T06:54:42;3.17;;;1.88;;
84187;SDS011;74316;45.648;13.764;2024-01-16T06:57:08;4.18;;;1.83;;
84187;SDS011;74316;45.648;13.764;2024-01-16T06:59:34;4.18;;;1.77;;
84187;SDS011;74316;45.648;13.764;2024-01-16T07:02:00;4.72;;;1.80;;
84187;SDS011;74316;45.648;13.764;2024-01-16T07:04:26;2.88;;;2.08;;
84187;SDS011;74316;45.648;13.764;2024-01-16T07:06:51;2.00;;;1.80;;
84187;SDS011;74316;45.648;13.764;2024-01-16T07:09:18;1.52;;;1.38;;
84187;SDS011;74316;45.648;13.764;2024-01-16T07:11:45;3.42;;;1.70;;
84187;SDS011;74316;45.648;13.764;2024-01-16T07:14:12;1.90;;;1.60;;
84187;SDS011;74316;45.648;13.764;2024-01-16T07:16:38;1.52;;;1.42;;
84187;SDS011;74316;45.648;13.764;2024-01-16T07:19:03;1.60;;;1.30;;
84187;SDS011;74316;45.648;13.764;2024-01-16T07:21:29;1.95;;;1.48;;
84187;SDS011;74316;45.648;13.764;2024-01-16T07:23:54;1.40;;;1.30;;
84187;SDS011;74316;45.648;13.764;2024-01-16T07:26:21;1.42;;;1.33;;
84187;SDS011;74316;45.648;13.764;2024-01-16T07:28:47;4.13;;;1.30;;
84187;SDS011;74316;45.648;13.764;2024-01-16T07:31:14;1.52;;;1.42;;
84187;SDS011;74316;45.648;13.764;2024-01-16T07:33:42;1.60;;;1.50;;
84187;SDS011;74316;45.648;13.764;2024-01-16T07:36:09;3.33;;;1.23;;
84187;SDS011;74316;45.648;13.764;2024-01-16T07:38:35;4.20;;;1.20;;
84187;SDS011;74316;45.648;13.764;2024-01-16T07:41:03;1.27;;;1.17;;
84187;SDS011;74316;45.648;13.764;2024-01-16T07:43:29;2.55;;;1.40;;
84187;SDS011;74316;45.648;13.764;2024-01-16T07:45:57;3.97;;;1.30;;
84187;SDS011;74316;45.648;13.764;2024-01-16T07:48:23;3.25;;;1.45;;
84187;SDS011;74316;45.648;13.764;2024-01-16T07:50:49;1.35;;;1.30;;
84187;SDS011;74316;45.648;13.764;2024-01-16T07:53:15;1.77;;;1.45;;
84187;SDS011;74316;45.648;13.764;2024-01-16T07:55:41;2.28;;;1.20;;
84187;SDS011;74316;45.648;13.764;2024-01-16T07:58:07;1.55;;;1.40;;
84187;SDS011;74316;45.648;13.764;2024-01-16T08:00:35;1.35;;;1.25;;
84187;SDS011;74316;45.648;13.764;2024-01-16T08:03:01;3.50;;;1.38;;
84187;SDS011;74316;45.648;13.764;2024-01-16T08:05:26;3.83;;;1.30;;
84187;SDS011;74316;45.648;13.764;2024-01-16T08:07:53;3.03;;;1.38;;
84187;SDS011;74316;45.648;13.764;2024-01-16T08:10:19;2.50;;;1.30;;
84187;SDS011;74316;45.648;13.764;2024-01-16T08:12:45;1.98;;;1.50;;
84187;SDS011;74316;45.648;13.764;2024-01-16T08:15:11;1.95;;;1.33;;
84187;SDS011;74316;45.648;13.764;2024-01-16T08:17:37;1.92;;;1.10;;
84187;SDS011;74316;45.648;13.764;2024-01-16T08:20:06;2.78;;;1.13;;
84187;SDS011;74316;45.648;13.764;2024-01-16T08:22:34;6.43;;;1.30;;
84187;SDS011;74316;45.648;13.764;2024-01-16T08:25:01;2.03;;;1.00;;
84187;SDS011;74316;45.648;13.764;2024-01-16T08:27:27;1.27;;;1.02;;
84187;SDS011;74316;45.648;13.764;2024-01-16T08:29:57;2.25;;;1.08;;
84187;SDS011;74316;45.648;13.764;2024-01-16T08:32:23;1.40;;;1.30;;
84187;SDS011;74316;45.648;13.764;2024-01-16T08:34:48;1.95;;;1.02;;
84187;SDS011;74316;45.648;13.764;2024-01-16T08:37:15;1.08;;;1.08;;
84187;SDS011;74316;45.648;13.764;2024-01-16T08:39:41;1.15;;;1.05;;
84187;SDS011;74316;45.648;13.764;2024-01-16T08:42:06;1.25;;;1.17;;
84187;SDS011;74316;45.648;13.764;2024-01-16T08:44:33;1.00;;;0.90;;
84187;SDS011;74316;45.648;13.764;2024-01-16T08:46:58;1.02;;;1.00;;
84187;SDS011;74316;45.648;13.764;2024-01-16T08:49:24;1.20;;;1.10;;
84187;SDS011;74316;45.648;13.764;2024-01-16T08:51:50;1.23;;;1.10;;
84187;SDS011;74316;45.648;13.764;2024-01-16T08:54:16;2.70;;;1.00;;
84187;SDS011;74316;45.648;13.764;2024-01-16T08:56:41;1.92;;;1.15;;
84187;SDS011;74316;45.648;13.764;2024-01-16T08:59:07;1.00;;;1.00;;
84187;SDS011;74316;45.648;13.764;2024-01-16T09:01:35;3.92;;;1.17;;
84187;SDS011;74316;45.648;13.764;2024-01-16T09:04:01;1.08;;;0.98;;
84187;SDS011;74316;45.648;13.764;2024-01-16T09:06:29;0.93;;;0.93;;
84187;SDS011;74316;45.648;13.764;2024-01-16T09:08:55;1.20;;;1.10;;
84187;SDS011;74316;45.648;13.764;2024-01-16T09:11:21;1.10;;;1.08;;
84187;SDS011;74316;45.648;13.764;2024-01-16T09:13:47;2.05;;;1.13;;
84187;SDS011;74316;45.648;13.764;2024-01-16T09:16:13;1.00;;;1.00;;
84187;SDS011;74316;45.648;13.764;2024-01-16T09:18:40;1.00;;;1.00;;
84187;SDS011;74316;45.648;13.764;2024-01-16T09:21:06;0.80;;;0.80;;
84187;SDS011;74316;45.648;13.764;2024-01-16T09:23:31;1.08;;;1.08;;
84187;SDS011;74316;45.648;13.764;2024-01-16T09:25:58;1.08;;;0.80;;
84187;SDS011;74316;45.648;13.764;2024-01-16T09:28:23;1.00;;;0.90;;
84187;SDS011;74316;45.648;13.764;2024-01-16T09:30:49;0.98;;;0.90;;
84187;SDS011;74316;45.648;13.764;2024-01-16T09:33:15;1.58;;;1.10;;
84187;SDS011;74316;45.648;13.764;2024-01-16T09:35:41;0.90;;;0.90;;
84187;SDS011;74316;45.648;13.764;2024-01-16T09:38:07;1.60;;;1.00;;
84187;SDS011;74316;45.648;13.764;2024-01-16T09:40:33;9.55;;;1.05;;
84187;SDS011;74316;45.648;13.764;2024-01-16T09:43:00;3.60;;;1.23;;
84187;SDS011;74316;45.648;13.764;2024-01-16T09:45:26;1.00;;;0.90;;
84187;SDS011;74316;45.648;13.764;2024-01-16T09:47:54;1.58;;;1.10;;
84187;SDS011;74316;45.648;13.764;2024-01-16T09:50:22;1.38;;;1.25;;
84187;SDS011;74316;45.648;13.764;2024-01-16T09:52:48;1.02;;;1.00;;
84187;SDS011;74316;45.648;13.764;2024-01-16T09:55:14;3.72;;;1.20;;
84187;SDS011;74316;45.648;13.764;2024-01-16T09:57:40;3.80;;;1.20;;
84187;SDS011;74316;45.648;13.764;2024-01-16T10:00:10;1.63;;;1.17;;
84187;SDS011;74316;45.648;13.764;2024-01-16T10:05:06;6.43;;;1.60;;
84187;SDS011;74316;45.648;13.764;2024-01-16T10:07:35;1.30;;;1.20;;
84187;SDS011;74316;45.648;13.764;2024-01-16T10:10:02;2.85;;;1.02;;
84187;SDS011;74316;45.648;13.764;2024-01-16T10:12:28;4.90;;;1.65;;
84187;SDS011;74316;45.648;13.764;2024-01-16T10:14:55;1.48;;;1.10;;
84187;SDS011;74316;45.648;13.764;2024-01-16T10:17:21;6.93;;;1.48;;
84187;SDS011;74316;45.648;13.764;2024-01-16T10:19:48;7.25;;;1.40;;
84187;SDS011;74316;45.648;13.764;2024-01-16T10:22:22;3.33;;;1.35;;
84187;SDS011;74316;45.648;13.764;2024-01-16T10:24:50;3.67;;;1.25;;
84187;SDS011;74316;45.648;13.764;2024-01-16T10:27:29;1.60;;;1.30;;
84187;SDS011;74316;45.648;13.764;2024-01-16T10:29:56;1.13;;;1.13;;
84187;SDS011;74316;45.648;13.764;2024-01-16T10:32:33;3.47;;;1.25;;
84187;SDS011;74316;45.648;13.764;2024-01-16T10:35:07;4.55;;;1.30;;
84187;SDS011;74316;45.648;13.764;2024-01-16T10:40:22;2.45;;;1.02;;
84187;SDS011;74316;45.648;13.764;2024-01-16T10:42:57;2.72;;;1.30;;
84187;SDS011;74316;45.648;13.764;2024-01-16T10:45:28;2.50;;;1.13;;
84187;SDS011;74316;45.648;13.764;2024-01-16T10:48:00;2.15;;;1.10;;
84187;SDS011;74316;45.648;13.764;2024-01-16T10:50:26;2.28;;;1.20;;
84187;SDS011;74316;45.648;13.764;2024-01-16T10:52:52;1.73;;;0.95;;
84187;SDS011;74316;45.648;13.764;2024-01-16T10:55:22;1.17;;;1.05;;
84187;SDS011;74316;45.648;13.764;2024-01-16T10:57:51;1.10;;;1.10;;
84187;SDS011;74316;45.648;13.764;2024-01-16T11:00:20;5.32;;;1.45;;
84187;SDS011;74316;45.648;13.764;2024-01-16T11:03:09;1.25;;;0.80;;
84187;SDS011;74316;45.648;13.764;2024-01-16T11:05:37;1.17;;;1.08;;
84187;SDS011;74316;45.648;13.764;2024-01-16T11:08:03;4.65;;;1.10;;
84187;SDS011;74316;45.648;13.764;2024-01-16T11:10:33;1.02;;;1.02;;
84187;SDS011;74316;45.648;13.764;2024-01-16T11:13:01;1.25;;;1.15;;
84187;SDS011;74316;45.648;13.764;2024-01-16T11:15:27;1.40;;;1.10;;
84187;SDS011;74316;45.648;13.764;2024-01-16T11:17:54;2.28;;;1.30;;
84187;SDS011;74316;45.648;13.764;2024-01-16T11:20:21;2.15;;;1.20;;
84187;SDS011;74316;45.648;13.764;2024-01-16T11:22:49;2.85;;;1.02;;
84187;SDS011;74316;45.648;13.764;2024-01-16T11:25:17;4.47;;;1.23;;
84187;SDS011;74316;45.648;13.764;2024-01-16T11:27:45;3.22;;;1.20;;
84187;SDS011;74316;45.648;13.764;2024-01-16T11:30:16;1.45;;;1.00;;
84187;SDS011;74316;45.648;13.764;2024-01-16T11:32:55;2.67;;;1.20;;
84187;SDS011;74316;45.648;13.764;2024-01-16T11:35:31;1.30;;;1.05;;
84187;SDS011;74316;45.648;13.764;2024-01-16T11:38:06;1.52;;;1.00;;
84187;SDS011;74316;45.648;13.764;2024-01-16T11:40:34;2.75;;;0.95;;
84187;SDS011;74316;45.648;13.764;2024-01-16T11:43:34;2.13;;;1.00;;
84187;SDS011;74316;45.648;13.764;2024-01-16T11:45:57;2.05;;;1.20;;
84187;SDS011;74316;45.648;13.764;2024-01-16T11:48:35;5.93;;;1.35;;
84187;SDS011;74316;45.648;13.764;2024-01-16T11:51:01;3.97;;;1.58;;
84187;SDS011;74316;45.648;13.764;2024-01-16T11:53:50;1.77;;;1.50;;
84187;SDS011;74316;45.648;13.764;2024-01-16T11:58:48;1.58;;;1.48;;
84187;SDS011;74316;45.648;13.764;2024-01-16T12:01:16;1.45;;;1.40;;
84187;SDS011;74316;45.648;13.764;2024-01-16T12:03:45;4.45;;;1.45;;
84187;SDS011;74316;45.648;13.764;2024-01-16T12:06:10;2.83;;;1.75;;
84187;SDS011;74316;45.648;13.764;2024-01-16T12:08:36;1.77;;;1.50;;
84187;SDS011;74316;45.648;13.764;2024-01-16T12:11:02;7.05;;;1.50;;
84187;SDS011;74316;45.648;13.764;2024-01-16T12:13:29;2.15;;;1.77;;
84187;SDS011;74316;45.648;13.764;2024-01-16T12:15:59;1.70;;;1.60;;
84187;SDS011;74316;45.648;13.764;2024-01-16T12:18:29;3.47;;;1.88;;
84187;SDS011;74316;45.648;13.764;2024-01-16T12:20:55;1.67;;;1.58;;
84187;SDS011;74316;45.648;13.764;2024-01-16T12:23:20;3.55;;;1.75;;
84187;SDS011;74316;45.648;13.764;2024-01-16T12:25:51;2.28;;;1.63;;
84187;SDS011;74316;45.648;13.764;2024-01-16T12:28:20;1.60;;;1.50;;
84187;SDS011;74316;45.648;13.764;2024-01-16T12:30:49;2.42;;;1.65;;
84187;SDS011;74316;45.648;13.764;2024-01-16T12:33:16;1.98;;;1.60;;
84187;SDS011;74316;45.648;13.764;2024-01-16T12:35:47;3.15;;;1.77;;
84187;SDS011;74316;45.648;13.764;2024-01-16T12:38:13;3.00;;;1.30;;
84187;SDS011;74316;45.648;13.764;2024-01-16T12:40:49;6.18;;;1.55;;
84187;SDS011;74316;45.648;13.764;2024-01-16T12:43:19;2.88;;;1.50;;
84187;SDS011;74316;45.648;13.764;2024-01-16T12:45:45;1.50;;;1.40;;
84187;SDS011;74316;45.648;13.764;2024-01-16T12:48:10;1.80;;;1.70;;
84187;SDS011;74316;45.648;13.764;2024-01-16T12:50:37;2.72;;;1.33;;
84187;SDS011;74316;45.648;13.764;2024-01-16T12:53:06;1.52;;;1.40;;
84187;SDS011;74316;45.648;13.764;2024-01-16T12:55:34;2.03;;;1.40;;
84187;SDS011;74316;45.648;13.764;2024-01-16T12:58:17;1.20;;;1.20;;
84187;SDS011;74316;45.648;13.764;2024-01-16T13:00:47;4.85;;;1.60;;
84187;SDS011;74316;45.648;13.764;2024-01-16T13:05:54;3.95;;;1.65;;
84187;SDS011;74316;45.648;13.764;2024-01-16T13:08:25;6.75;;;1.38;;
84187;SDS011;74316;45.648;13.764;2024-01-16T13:11:04;2.00;;;1.83;;
84187;SDS011;74316;45.648;13.764;2024-01-16T13:13:31;6.50;;;1.55;;
84187;SDS011;74316;45.648;13.764;2024-01-16T13:15:57;1.98;;;1.50;;
84187;SDS011;74316;45.648;13.764;2024-01-16T13:18:24;1.83;;;1.67;;
84187;SDS011;74316;45.648;13.764;2024-01-16T13:20:53;1.80;;;1.67;;
84187;SDS011;74316;45.648;13.764;2024-01-16T13:23:20;1.80;;;1.65;;
84187;SDS011;74316;45.648;13.764;2024-01-16T13:25:46;5.28;;;1.60;;
84187;SDS011;74316;45.648;13.764;2024-01-16T13:28:13;1.85;;;1.33;;
84187;SDS011;74316;45.648;13.764;2024-01-16T13:30:42;2.30;;;1.40;;
84187;SDS011;74316;45.648;13.764;2024-01-16T13:33:09;1.40;;;1.30;;
84187;SDS011;74316;45.648;13.764;2024-01-16T13:35:35;10.02;;;1.60;;
84187;SDS011;74316;45.648;13.764;2024-01-16T13:38:03;2.13;;;1.50;;
84187;SDS011;74316;45.648;13.764;2024-01-16T13:40:29;1.80;;;1.70;;
84187;SDS011;74316;45.648;13.764;2024-01-16T13:42:55;1.65;;;1.55;;
84187;SDS011;74316;45.648;13.764;2024-01-16T13:45:21;4.13;;;1.65;;
84187;SDS011;74316;45.648;13.764;2024-01-16T13:47:47;1.98;;;1.30;;
84187;SDS011;74316;45.648;13.764;2024-01-16T13:50:14;4.15;;;1.40;;
84187;SDS011;74316;45.648;13.764;2024-01-16T13:52:40;2.08;;;1.30;;
84187;SDS011;74316;45.648;13.764;2024-01-16T13:55:05;2.20;;;1.52;;
84187;SDS011;74316;45.648;13.764;2024-01-16T13:57:32;2.58;;;1.58;;
84187;SDS011;74316;45.648;13.764;2024-01-16T13:59:59;3.97;;;1.40;;
84187;SDS011;74316;45.648;13.764;2024-01-16T14:02:26;1.55;;;1.45;;
84187;SDS011;74316;45.648;13.764;2024-01-16T14:04:51;4.60;;;1.60;;
84187;SDS011;74316;45.648;13.764;2024-01-16T14:07:17;1.60;;;1.50;;
84187;SDS011;74316;45.648;13.764;2024-01-16T14:09:44;1.48;;;1.30;;
84187;SDS011;74316;45.648;13.764;2024-01-16T14:12:10;1.95;;;1.40;;
84187;SDS011;74316;45.648;13.764;2024-01-16T14:14:36;1.30;;;1.20;;
84187;SDS011;74316;45.648;13.764;2024-01-16T14:17:03;1.20;;;1.10;;
84187;SDS011;74316;45.648;13.764;2024-01-16T14:19:29;2.83;;;1.30;;
84187;SDS011;74316;45.648;13.764;2024-01-16T14:21:55;2.42;;;1.55;;
84187;SDS011;74316;45.648;13.764;2024-01-16T14:24:21;1.38;;;1.27;;
84187;SDS011;74316;45.648;13.764;2024-01-16T14:26:47;1.95;;;1.17;;
84187;SDS011;74316;45.648;13.764;2024-01-16T14:29:12;1.70;;;1.48;;
84187;SDS011;74316;45.648;13.764;2024-01-16T14:31:41;2.63;;;1.45;;
84187;SDS011;74316;45.648;13.764;2024-01-16T14:34:12;1.65;;;1.40;;
84187;SDS011;74316;45.648;13.764;2024-01-16T14:36:39;1.58;;;1.13;;
84187;SDS011;74316;45.648;13.764;2024-01-16T14:39:07;2.15;;;1.45;;
84187;SDS011;74316;45.648;13.764;2024-01-16T14:41:39;2.40;;;1.40;;
84187;SDS011;74316;45.648;13.764;2024-01-16T14:44:08;1.27;;;1.20;;